sensor_id;sensor_type;location;lat;lon;timestamp;P1;durP1;ratioP1;P2;durP2;ratioP2
462;SDS011;218;51.902;9.542;2023-07-22T00:00:30;4.23;;;3.93;;
462;SDS011;218;51.902;9.542;2023-07-22T00:02:58;4.70;;;4.40;;
462;SDS011;218;51.902;9.542;2023-07-22T00:05:26;4.70;;;4.40;;
462;SDS011;218;51.902;9.542;2023-07-22T00:07:53;5.03;;;4.63;;
462;SDS011;218;51.902;9.542;2023-07-22T00:10:20;4.97;;;4.57;;
462;SDS011;218;51.902;9.542;2023-07-22T00:12:47;5.03;;;4.63;;
462;SDS011;218;51.902;9.542;2023-07-22T00:15:14;5.60;;;5.10;;
462;SDS011;218;51.902;9.542;2023-07-22T00:17:42;4.77;;;4.47;;
462;SDS011;218;51.902;9.542;2023-07-22T00:20:11;4.93;;;4.63;;
462;SDS011;218;51.902;9.542;2023-07-22T00:22:40;5.40;;;5.00;;
462;SDS011;218;51.902;9.542;2023-07-22T00:25:09;6.00;;;5.50;;
462;SDS011;218;51.902;9.542;2023-07-22T00:27:37;4.60;;;4.20;;
462;SDS011;218;51.902;9.542;2023-07-22T00:30:04;4.93;;;4.53;;
462;SDS011;218;51.902;9.542;2023-07-22T00:32:32;4.67;;;4.37;;
462;SDS011;218;51.902;9.542;2023-07-22T00:34:59;4.93;;;4.60;;
462;SDS011;218;51.902;9.542;2023-07-22T00:37:28;4.90;;;4.50;;
462;SDS011;218;51.902;9.542;2023-07-22T00:39:55;5.87;;;5.00;;
462;SDS011;218;51.902;9.542;2023-07-22T00:42:22;5.10;;;4.70;;
462;SDS011;218;51.902;9.542;2023-07-22T00:44:49;5.40;;;4.90;;
462;SDS011;218;51.902;9.542;2023-07-22T00:47:16;4.67;;;4.40;;
462;SDS011;218;51.902;9.542;2023-07-22T00:49:46;5.00;;;4.50;;
462;SDS011;218;51.902;9.542;2023-07-22T00:52:14;5.20;;;4.80;;
462;SDS011;218;51.902;9.542;2023-07-22T00:54:43;5.70;;;5.20;;
462;SDS011;218;51.902;9.542;2023-07-22T00:57:10;5.20;;;4.80;;
462;SDS011;218;51.902;9.542;2023-07-22T00:59:38;4.87;;;4.47;;
462;SDS011;218;51.902;9.542;2023-07-22T01:02:06;6.73;;;6.07;;
462;SDS011;218;51.902;9.542;2023-07-22T01:04:34;6.07;;;5.57;;
462;SDS011;218;51.902;9.542;2023-07-22T01:07:02;5.53;;;5.07;;
462;SDS011;218;51.902;9.542;2023-07-22T01:09:34;6.50;;;6.00;;
462;SDS011;218;51.902;9.542;2023-07-22T01:12:03;6.43;;;5.93;;
462;SDS011;218;51.902;9.542;2023-07-22T01:14:31;7.03;;;6.43;;
462;SDS011;218;51.902;9.542;2023-07-22T01:16:59;6.87;;;6.20;;
462;SDS011;218;51.902;9.542;2023-07-22T01:19:26;6.20;;;5.60;;
462;SDS011;218;51.902;9.542;2023-07-22T01:21:54;6.30;;;5.80;;
462;SDS011;218;51.902;9.542;2023-07-22T01:24:23;6.07;;;5.67;;
462;SDS011;218;51.902;9.542;2023-07-22T01:26:50;7.30;;;6.43;;
462;SDS011;218;51.902;9.542;2023-07-22T01:29:18;7.30;;;6.70;;
462;SDS011;218;51.902;9.542;2023-07-22T01:31:46;7.77;;;7.10;;
462;SDS011;218;51.902;9.542;2023-07-22T01:34:13;7.20;;;6.50;;
462;SDS011;218;51.902;9.542;2023-07-22T01:36:42;5.80;;;5.33;;
462;SDS011;218;51.902;9.542;2023-07-22T01:39:09;7.83;;;6.53;;
462;SDS011;218;51.902;9.542;2023-07-22T01:41:38;8.23;;;6.97;;
462;SDS011;218;51.902;9.542;2023-07-22T01:44:05;6.57;;;6.03;;
462;SDS011;218;51.902;9.542;2023-07-22T01:46:33;6.67;;;6.00;;
462;SDS011;218;51.902;9.542;2023-07-22T01:49:01;6.43;;;5.90;;
462;SDS011;218;51.902;9.542;2023-07-22T01:51:28;7.20;;;6.60;;
462;SDS011;218;51.902;9.542;2023-07-22T01:53:55;6.83;;;6.20;;
462;SDS011;218;51.902;9.542;2023-07-22T01:56:22;7.47;;;6.87;;
462;SDS011;218;51.902;9.542;2023-07-22T01:58:51;6.67;;;6.17;;
462;SDS011;218;51.902;9.542;2023-07-22T02:01:18;6.33;;;5.73;;
462;SDS011;218;51.902;9.542;2023-07-22T02:03:45;6.07;;;5.67;;
462;SDS011;218;51.902;9.542;2023-07-22T02:06:12;5.87;;;5.37;;
462;SDS011;218;51.902;9.542;2023-07-22T02:08:40;6.87;;;6.27;;
462;SDS011;218;51.902;9.542;2023-07-22T02:11:07;6.33;;;5.73;;
462;SDS011;218;51.902;9.542;2023-07-22T02:13:35;5.90;;;5.40;;
462;SDS011;218;51.902;9.542;2023-07-22T02:16:04;6.77;;;6.17;;
462;SDS011;218;51.902;9.542;2023-07-22T02:18:31;6.07;;;5.47;;
462;SDS011;218;51.902;9.542;2023-07-22T02:20:58;6.00;;;5.60;;
462;SDS011;218;51.902;9.542;2023-07-22T02:23:25;5.30;;;4.90;;
462;SDS011;218;51.902;9.542;2023-07-22T02:25:53;5.93;;;5.43;;
462;SDS011;218;51.902;9.542;2023-07-22T02:28:20;6.17;;;5.57;;
462;SDS011;218;51.902;9.542;2023-07-22T02:30:49;6.43;;;5.80;;
462;SDS011;218;51.902;9.542;2023-07-22T02:33:20;5.50;;;5.00;;
462;SDS011;218;51.902;9.542;2023-07-22T02:35:47;6.10;;;5.60;;
462;SDS011;218;51.902;9.542;2023-07-22T02:38:15;6.20;;;5.60;;
462;SDS011;218;51.902;9.542;2023-07-22T02:40:42;6.93;;;6.23;;
462;SDS011;218;51.902;9.542;2023-07-22T02:43:09;5.57;;;5.07;;
462;SDS011;218;51.902;9.542;2023-07-22T02:45:36;6.53;;;6.03;;
462;SDS011;218;51.902;9.542;2023-07-22T02:48:04;6.85;;;6.20;;
462;SDS011;218;51.902;9.542;2023-07-22T02:50:34;7.60;;;6.90;;
462;SDS011;218;51.902;9.542;2023-07-22T02:53:01;6.10;;;5.50;;
462;SDS011;218;51.902;9.542;2023-07-22T02:55:29;6.90;;;6.23;;
462;SDS011;218;51.902;9.542;2023-07-22T02:57:56;6.80;;;6.13;;
462;SDS011;218;51.902;9.542;2023-07-22T03:00:23;7.00;;;6.40;;
462;SDS011;218;51.902;9.542;2023-07-22T03:02:50;6.60;;;6.00;;
462;SDS011;218;51.902;9.542;2023-07-22T03:05:18;6.60;;;5.93;;
462;SDS011;218;51.902;9.542;2023-07-22T03:07:47;7.33;;;6.50;;
462;SDS011;218;51.902;9.542;2023-07-22T03:10:14;7.13;;;6.53;;
462;SDS011;218;51.902;9.542;2023-07-22T03:12:42;7.00;;;6.40;;
462;SDS011;218;51.902;9.542;2023-07-22T03:15:09;6.57;;;5.97;;
462;SDS011;218;51.902;9.542;2023-07-22T03:17:38;7.80;;;7.07;;
462;SDS011;218;51.902;9.542;2023-07-22T03:20:04;7.33;;;6.53;;
462;SDS011;218;51.902;9.542;2023-07-22T03:22:36;6.93;;;6.23;;
462;SDS011;218;51.902;9.542;2023-07-22T03:25:05;7.07;;;5.73;;
462;SDS011;218;51.902;9.542;2023-07-22T03:27:34;7.70;;;6.90;;
462;SDS011;218;51.902;9.542;2023-07-22T03:30:01;8.93;;;6.40;;
462;SDS011;218;51.902;9.542;2023-07-22T03:32:29;7.27;;;6.57;;
462;SDS011;218;51.902;9.542;2023-07-22T03:34:56;6.90;;;6.33;;
462;SDS011;218;51.902;9.542;2023-07-22T03:37:23;6.60;;;6.00;;
462;SDS011;218;51.902;9.542;2023-07-22T03:39:50;7.40;;;6.70;;
462;SDS011;218;51.902;9.542;2023-07-22T03:42:19;7.80;;;7.00;;
462;SDS011;218;51.902;9.542;2023-07-22T03:44:46;7.90;;;7.20;;
462;SDS011;218;51.902;9.542;2023-07-22T03:47:13;6.53;;;5.97;;
462;SDS011;218;51.902;9.542;2023-07-22T03:49:41;8.30;;;7.47;;
462;SDS011;218;51.902;9.542;2023-07-22T03:52:09;7.40;;;6.70;;
462;SDS011;218;51.902;9.542;2023-07-22T03:54:39;8.67;;;7.87;;
462;SDS011;218;51.902;9.542;2023-07-22T03:57:06;7.73;;;7.03;;
462;SDS011;218;51.902;9.542;2023-07-22T03:59:35;8.20;;;7.50;;
462;SDS011;218;51.902;9.542;2023-07-22T04:02:01;9.70;;;8.30;;
462;SDS011;218;51.902;9.542;2023-07-22T04:04:28;8.30;;;7.43;;
462;SDS011;218;51.902;9.542;2023-07-22T04:06:55;9.33;;;7.40;;
462;SDS011;218;51.902;9.542;2023-07-22T04:09:23;8.10;;;6.97;;
462;SDS011;218;51.902;9.542;2023-07-22T04:11:50;7.97;;;7.27;;
462;SDS011;218;51.902;9.542;2023-07-22T04:14:17;11.13;;;7.60;;
462;SDS011;218;51.902;9.542;2023-07-22T04:16:46;12.20;;;9.70;;
462;SDS011;218;51.902;9.542;2023-07-22T04:19:13;8.30;;;7.20;;
462;SDS011;218;51.902;9.542;2023-07-22T04:21:42;8.50;;;7.70;;
462;SDS011;218;51.902;9.542;2023-07-22T04:24:10;8.73;;;7.83;;
462;SDS011;218;51.902;9.542;2023-07-22T04:26:37;8.97;;;7.70;;
462;SDS011;218;51.902;9.542;2023-07-22T04:29:04;8.90;;;8.10;;
462;SDS011;218;51.902;9.542;2023-07-22T04:31:33;9.07;;;7.80;;
462;SDS011;218;51.902;9.542;2023-07-22T04:34:02;9.60;;;8.80;;
462;SDS011;218;51.902;9.542;2023-07-22T04:36:30;8.10;;;7.30;;
462;SDS011;218;51.902;9.542;2023-07-22T04:38:57;9.20;;;7.90;;
462;SDS011;218;51.902;9.542;2023-07-22T04:41:24;7.73;;;6.93;;
462;SDS011;218;51.902;9.542;2023-07-22T04:43:52;8.90;;;7.87;;
462;SDS011;218;51.902;9.542;2023-07-22T04:46:19;7.97;;;7.20;;
462;SDS011;218;51.902;9.542;2023-07-22T04:48:46;9.10;;;8.27;;
462;SDS011;218;51.902;9.542;2023-07-22T04:51:15;9.20;;;8.30;;
462;SDS011;218;51.902;9.542;2023-07-22T04:53:42;9.40;;;8.50;;
462;SDS011;218;51.902;9.542;2023-07-22T04:56:09;8.30;;;7.50;;
462;SDS011;218;51.902;9.542;2023-07-22T04:58:37;8.93;;;8.03;;
462;SDS011;218;51.902;9.542;2023-07-22T05:01:04;8.33;;;7.53;;
462;SDS011;218;51.902;9.542;2023-07-22T05:03:32;9.57;;;8.57;;
462;SDS011;218;51.902;9.542;2023-07-22T05:05:59;8.30;;;7.50;;
462;SDS011;218;51.902;9.542;2023-07-22T05:08:28;9.33;;;8.37;;
462;SDS011;218;51.902;9.542;2023-07-22T05:10:55;9.60;;;7.33;;
462;SDS011;218;51.902;9.542;2023-07-22T05:13:22;8.00;;;7.30;;
462;SDS011;218;51.902;9.542;2023-07-22T05:15:49;7.93;;;7.13;;
462;SDS011;218;51.902;9.542;2023-07-22T05:18:16;9.30;;;8.40;;
462;SDS011;218;51.902;9.542;2023-07-22T05:20:44;9.30;;;8.40;;
462;SDS011;218;51.902;9.542;2023-07-22T05:23:11;10.40;;;9.20;;
462;SDS011;218;51.902;9.542;2023-07-22T05:25:39;9.13;;;8.20;;
462;SDS011;218;51.902;9.542;2023-07-22T05:28:07;10.17;;;9.17;;
462;SDS011;218;51.902;9.542;2023-07-22T05:30:34;10.23;;;9.23;;
462;SDS011;218;51.902;9.542;2023-07-22T05:33:01;8.30;;;7.60;;
462;SDS011;218;51.902;9.542;2023-07-22T05:35:28;9.83;;;8.93;;
462;SDS011;218;51.902;9.542;2023-07-22T05:37:55;11.57;;;10.30;;
462;SDS011;218;51.902;9.542;2023-07-22T05:40:23;9.97;;;8.97;;
462;SDS011;218;51.902;9.542;2023-07-22T05:42:51;9.80;;;8.60;;
462;SDS011;218;51.902;9.542;2023-07-22T05:45:19;10.37;;;8.20;;
462;SDS011;218;51.902;9.542;2023-07-22T05:47:46;9.53;;;8.63;;
462;SDS011;218;51.902;9.542;2023-07-22T05:50:13;8.67;;;7.60;;
462;SDS011;218;51.902;9.542;2023-07-22T05:52:40;12.07;;;9.40;;
462;SDS011;218;51.902;9.542;2023-07-22T05:55:08;11.73;;;10.57;;
462;SDS011;218;51.902;9.542;2023-07-22T05:57:35;9.20;;;8.30;;
462;SDS011;218;51.902;9.542;2023-07-22T06:00:04;11.90;;;10.17;;
462;SDS011;218;51.902;9.542;2023-07-22T06:02:33;9.63;;;8.63;;
462;SDS011;218;51.902;9.542;2023-07-22T06:05:01;10.63;;;9.20;;
462;SDS011;218;51.902;9.542;2023-07-22T06:07:29;11.10;;;10.00;;
462;SDS011;218;51.902;9.542;2023-07-22T06:09:56;10.70;;;9.70;;
462;SDS011;218;51.902;9.542;2023-07-22T06:12:23;10.47;;;9.37;;
462;SDS011;218;51.902;9.542;2023-07-22T06:14:50;8.87;;;7.93;;
462;SDS011;218;51.902;9.542;2023-07-22T06:17:20;11.30;;;9.47;;
462;SDS011;218;51.902;9.542;2023-07-22T06:19:47;9.83;;;8.97;;
462;SDS011;218;51.902;9.542;2023-07-22T06:22:14;9.90;;;8.90;;
462;SDS011;218;51.902;9.542;2023-07-22T06:24:41;9.47;;;8.47;;
462;SDS011;218;51.902;9.542;2023-07-22T06:27:08;10.00;;;9.03;;
462;SDS011;218;51.902;9.542;2023-07-22T06:29:35;11.73;;;9.97;;
462;SDS011;218;51.902;9.542;2023-07-22T06:32:02;11.53;;;9.07;;
462;SDS011;218;51.902;9.542;2023-07-22T06:34:31;10.27;;;9.27;;
462;SDS011;218;51.902;9.542;2023-07-22T06:36:58;9.43;;;8.50;;
462;SDS011;218;51.902;9.542;2023-07-22T06:39:25;9.90;;;8.40;;
462;SDS011;218;51.902;9.542;2023-07-22T06:41:53;9.13;;;8.23;;
462;SDS011;218;51.902;9.542;2023-07-22T06:44:20;9.90;;;8.93;;
462;SDS011;218;51.902;9.542;2023-07-22T06:46:48;9.70;;;8.80;;
462;SDS011;218;51.902;9.542;2023-07-22T06:49:15;10.13;;;9.10;;
462;SDS011;218;51.902;9.542;2023-07-22T06:51:43;9.80;;;8.90;;
462;SDS011;218;51.902;9.542;2023-07-22T06:54:10;9.43;;;8.53;;
462;SDS011;218;51.902;9.542;2023-07-22T06:56:38;9.00;;;8.20;;
462;SDS011;218;51.902;9.542;2023-07-22T06:59:05;8.97;;;8.17;;
462;SDS011;218;51.902;9.542;2023-07-22T07:01:32;10.20;;;9.07;;
462;SDS011;218;51.902;9.542;2023-07-22T07:03:59;12.13;;;10.73;;
462;SDS011;218;51.902;9.542;2023-07-22T07:06:28;11.77;;;9.03;;
462;SDS011;218;51.902;9.542;2023-07-22T07:08:58;15.00;;;10.60;;
462;SDS011;218;51.902;9.542;2023-07-22T07:11:26;11.20;;;10.07;;
462;SDS011;218;51.902;9.542;2023-07-22T07:13:54;10.33;;;8.63;;
462;SDS011;218;51.902;9.542;2023-07-22T07:16:22;16.17;;;11.03;;
462;SDS011;218;51.902;9.542;2023-07-22T07:18:49;11.20;;;9.30;;
462;SDS011;218;51.902;9.542;2023-07-22T07:21:17;9.43;;;8.53;;
462;SDS011;218;51.902;9.542;2023-07-22T07:23:44;9.40;;;8.50;;
462;SDS011;218;51.902;9.542;2023-07-22T07:26:13;12.33;;;11.03;;
462;SDS011;218;51.902;9.542;2023-07-22T07:28:40;10.10;;;9.10;;
462;SDS011;218;51.902;9.542;2023-07-22T07:31:07;10.77;;;9.77;;
462;SDS011;218;51.902;9.542;2023-07-22T07:33:34;10.37;;;9.37;;
462;SDS011;218;51.902;9.542;2023-07-22T07:36:02;9.73;;;8.83;;
462;SDS011;218;51.902;9.542;2023-07-22T07:38:29;11.90;;;9.80;;
462;SDS011;218;51.902;9.542;2023-07-22T07:40:57;10.47;;;9.43;;
462;SDS011;218;51.902;9.542;2023-07-22T07:43:26;9.30;;;8.40;;
462;SDS011;218;51.902;9.542;2023-07-22T07:48:35;9.53;;;8.63;;
462;SDS011;218;51.902;9.542;2023-07-22T07:51:02;12.13;;;10.20;;
462;SDS011;218;51.902;9.542;2023-07-22T07:53:30;10.30;;;9.30;;
462;SDS011;218;51.902;9.542;2023-07-22T07:55:57;10.90;;;8.60;;
462;SDS011;218;51.902;9.542;2023-07-22T07:58:25;10.20;;;8.23;;
462;SDS011;218;51.902;9.542;2023-07-22T08:00:53;9.90;;;8.93;;
462;SDS011;218;51.902;9.542;2023-07-22T08:03:20;10.00;;;9.00;;
462;SDS011;218;51.902;9.542;2023-07-22T08:05:47;11.00;;;8.80;;
462;SDS011;218;51.902;9.542;2023-07-22T08:08:14;11.43;;;10.37;;
462;SDS011;218;51.902;9.542;2023-07-22T08:10:41;9.30;;;8.30;;
462;SDS011;218;51.902;9.542;2023-07-22T08:13:09;9.80;;;8.80;;
462;SDS011;218;51.902;9.542;2023-07-22T08:15:38;9.60;;;8.70;;
462;SDS011;218;51.902;9.542;2023-07-22T08:18:06;10.47;;;9.50;;
462;SDS011;218;51.902;9.542;2023-07-22T08:20:34;9.53;;;8.70;;
462;SDS011;218;51.902;9.542;2023-07-22T08:23:01;10.70;;;9.80;;
462;SDS011;218;51.902;9.542;2023-07-22T08:25:28;10.77;;;9.37;;
462;SDS011;218;51.902;9.542;2023-07-22T08:27:55;10.00;;;9.10;;
462;SDS011;218;51.902;9.542;2023-07-22T08:30:22;10.07;;;9.07;;
462;SDS011;218;51.902;9.542;2023-07-22T08:32:52;11.60;;;10.07;;
462;SDS011;218;51.902;9.542;2023-07-22T08:35:19;11.13;;;9.87;;
462;SDS011;218;51.902;9.542;2023-07-22T08:37:47;11.20;;;9.60;;
462;SDS011;218;51.902;9.542;2023-07-22T08:40:14;11.17;;;10.00;;
462;SDS011;218;51.902;9.542;2023-07-22T08:42:41;11.53;;;10.43;;
462;SDS011;218;51.902;9.542;2023-07-22T08:45:09;11.10;;;10.00;;
462;SDS011;218;51.902;9.542;2023-07-22T08:47:37;11.80;;;10.33;;
462;SDS011;218;51.902;9.542;2023-07-22T08:50:09;10.23;;;9.20;;
462;SDS011;218;51.902;9.542;2023-07-22T08:52:37;11.70;;;10.07;;
462;SDS011;218;51.902;9.542;2023-07-22T08:55:04;12.03;;;10.83;;
462;SDS011;218;51.902;9.542;2023-07-22T08:57:33;10.37;;;9.27;;
462;SDS011;218;51.902;9.542;2023-07-22T09:00:01;11.30;;;9.73;;
462;SDS011;218;51.902;9.542;2023-07-22T09:02:30;9.87;;;8.97;;
462;SDS011;218;51.902;9.542;2023-07-22T09:04:58;11.37;;;10.27;;
462;SDS011;218;51.902;9.542;2023-07-22T09:07:26;10.33;;;9.27;;
462;SDS011;218;51.902;9.542;2023-07-22T09:09:54;10.83;;;9.73;;
462;SDS011;218;51.902;9.542;2023-07-22T09:12:23;10.70;;;9.70;;
462;SDS011;218;51.902;9.542;2023-07-22T09:14:51;11.47;;;10.37;;
462;SDS011;218;51.902;9.542;2023-07-22T09:17:19;11.40;;;9.03;;
462;SDS011;218;51.902;9.542;2023-07-22T09:19:47;10.97;;;8.63;;
462;SDS011;218;51.902;9.542;2023-07-22T09:22:18;10.23;;;9.33;;
462;SDS011;218;51.902;9.542;2023-07-22T09:24:52;8.53;;;7.73;;
462;SDS011;218;51.902;9.542;2023-07-22T09:27:29;10.40;;;9.40;;
462;SDS011;218;51.902;9.542;2023-07-22T09:29:59;9.40;;;8.53;;
462;SDS011;218;51.902;9.542;2023-07-22T09:32:34;11.27;;;8.77;;
462;SDS011;218;51.902;9.542;2023-07-22T09:35:02;10.00;;;8.93;;
462;SDS011;218;51.902;9.542;2023-07-22T09:37:35;9.10;;;8.20;;
462;SDS011;218;51.902;9.542;2023-07-22T09:40:06;9.33;;;8.40;;
462;SDS011;218;51.902;9.542;2023-07-22T09:42:42;10.60;;;8.53;;
462;SDS011;218;51.902;9.542;2023-07-22T09:45:10;9.60;;;8.60;;
462;SDS011;218;51.902;9.542;2023-07-22T09:47:40;8.10;;;7.40;;
462;SDS011;218;51.902;9.542;2023-07-22T09:50:10;9.23;;;8.33;;
462;SDS011;218;51.902;9.542;2023-07-22T09:52:44;8.77;;;7.80;;
462;SDS011;218;51.902;9.542;2023-07-22T09:55:16;10.00;;;9.00;;
462;SDS011;218;51.902;9.542;2023-07-22T09:57:45;9.93;;;9.03;;
462;SDS011;218;51.902;9.542;2023-07-22T10:00:14;10.30;;;9.20;;
462;SDS011;218;51.902;9.542;2023-07-22T10:02:44;10.13;;;8.30;;
462;SDS011;218;51.902;9.542;2023-07-22T10:05:15;8.77;;;8.00;;
462;SDS011;218;51.902;9.542;2023-07-22T10:07:44;9.97;;;8.73;;
462;SDS011;218;51.902;9.542;2023-07-22T10:10:12;10.27;;;9.23;;
462;SDS011;218;51.902;9.542;2023-07-22T10:12:41;9.03;;;8.33;;
462;SDS011;218;51.902;9.542;2023-07-22T10:15:09;10.30;;;9.40;;
462;SDS011;218;51.902;9.542;2023-07-22T10:17:37;9.57;;;8.67;;
462;SDS011;218;51.902;9.542;2023-07-22T10:20:05;9.33;;;8.43;;
462;SDS011;218;51.902;9.542;2023-07-22T10:22:35;10.50;;;9.00;;
462;SDS011;218;51.902;9.542;2023-07-22T10:25:04;9.93;;;9.07;;
462;SDS011;218;51.902;9.542;2023-07-22T10:27:34;9.30;;;8.40;;
462;SDS011;218;51.902;9.542;2023-07-22T10:30:01;9.53;;;8.63;;
462;SDS011;218;51.902;9.542;2023-07-22T10:32:33;9.33;;;8.47;;
462;SDS011;218;51.902;9.542;2023-07-22T10:35:01;8.90;;;7.57;;
462;SDS011;218;51.902;9.542;2023-07-22T10:37:31;8.63;;;7.93;;
462;SDS011;218;51.902;9.542;2023-07-22T10:39:59;10.13;;;9.23;;
462;SDS011;218;51.902;9.542;2023-07-22T10:42:27;9.87;;;7.33;;
462;SDS011;218;51.902;9.542;2023-07-22T10:45:01;9.40;;;8.60;;
462;SDS011;218;51.902;9.542;2023-07-22T10:47:32;8.60;;;7.90;;
462;SDS011;218;51.902;9.542;2023-07-22T10:50:05;8.93;;;8.03;;
462;SDS011;218;51.902;9.542;2023-07-22T10:52:38;8.43;;;7.73;;
462;SDS011;218;51.902;9.542;2023-07-22T10:55:13;8.10;;;7.30;;
462;SDS011;218;51.902;9.542;2023-07-22T10:57:47;7.63;;;7.00;;
462;SDS011;218;51.902;9.542;2023-07-22T11:00:19;9.10;;;6.90;;
462;SDS011;218;51.902;9.542;2023-07-22T11:02:47;7.33;;;6.73;;
462;SDS011;218;51.902;9.542;2023-07-22T11:05:46;8.90;;;8.10;;
462;SDS011;218;51.902;9.542;2023-07-22T11:08:15;7.17;;;6.43;;
462;SDS011;218;51.902;9.542;2023-07-22T11:10:51;8.00;;;7.40;;
462;SDS011;218;51.902;9.542;2023-07-22T11:13:26;7.77;;;7.07;;
462;SDS011;218;51.902;9.542;2023-07-22T11:15:58;7.47;;;6.87;;
462;SDS011;218;51.902;9.542;2023-07-22T11:18:35;8.40;;;7.10;;
462;SDS011;218;51.902;9.542;2023-07-22T11:21:06;7.30;;;6.60;;
462;SDS011;218;51.902;9.542;2023-07-22T11:23:34;8.07;;;6.17;;
462;SDS011;218;51.902;9.542;2023-07-22T11:26:01;7.60;;;7.00;;
462;SDS011;218;51.902;9.542;2023-07-22T11:28:29;8.03;;;6.83;;
462;SDS011;218;51.902;9.542;2023-07-22T11:30:57;7.50;;;6.80;;
462;SDS011;218;51.902;9.542;2023-07-22T11:33:26;7.63;;;7.03;;
462;SDS011;218;51.902;9.542;2023-07-22T11:36:03;7.17;;;6.47;;
462;SDS011;218;51.902;9.542;2023-07-22T11:38:30;7.10;;;6.50;;
462;SDS011;218;51.902;9.542;2023-07-22T11:40:57;7.47;;;6.87;;
462;SDS011;218;51.902;9.542;2023-07-22T11:43:25;7.47;;;6.87;;
462;SDS011;218;51.902;9.542;2023-07-22T11:45:53;7.43;;;6.77;;
462;SDS011;218;51.902;9.542;2023-07-22T11:48:21;7.73;;;7.03;;
462;SDS011;218;51.902;9.542;2023-07-22T11:50:48;7.77;;;7.17;;
462;SDS011;218;51.902;9.542;2023-07-22T11:53:15;7.60;;;6.90;;
462;SDS011;218;51.902;9.542;2023-07-22T11:55:42;7.30;;;6.60;;
462;SDS011;218;51.902;9.542;2023-07-22T11:58:09;8.50;;;7.63;;
462;SDS011;218;51.902;9.542;2023-07-22T12:00:36;7.10;;;6.57;;
462;SDS011;218;51.902;9.542;2023-07-22T12:03:06;7.80;;;7.20;;
462;SDS011;218;51.902;9.542;2023-07-22T12:05:35;6.90;;;6.30;;
462;SDS011;218;51.902;9.542;2023-07-22T12:08:03;6.97;;;6.37;;
462;SDS011;218;51.902;9.542;2023-07-22T12:10:31;6.60;;;6.10;;
462;SDS011;218;51.902;9.542;2023-07-22T12:13:00;9.03;;;6.53;;
462;SDS011;218;51.902;9.542;2023-07-22T12:15:27;6.53;;;6.03;;
462;SDS011;218;51.902;9.542;2023-07-22T12:17:55;6.23;;;5.73;;
462;SDS011;218;51.902;9.542;2023-07-22T12:20:23;7.63;;;6.93;;
462;SDS011;218;51.902;9.542;2023-07-22T12:22:53;6.33;;;5.83;;
462;SDS011;218;51.902;9.542;2023-07-22T12:25:20;6.50;;;5.90;;
462;SDS011;218;51.902;9.542;2023-07-22T12:27:47;6.63;;;6.10;;
462;SDS011;218;51.902;9.542;2023-07-22T12:30:14;6.37;;;5.87;;
462;SDS011;218;51.902;9.542;2023-07-22T12:32:42;7.20;;;6.60;;
462;SDS011;218;51.902;9.542;2023-07-22T12:35:09;7.17;;;6.47;;
462;SDS011;218;51.902;9.542;2023-07-22T12:37:38;7.40;;;6.70;;
462;SDS011;218;51.902;9.542;2023-07-22T12:40:07;9.13;;;6.83;;
462;SDS011;218;51.902;9.542;2023-07-22T12:42:36;8.20;;;7.40;;
462;SDS011;218;51.902;9.542;2023-07-22T12:45:03;7.00;;;6.33;;
462;SDS011;218;51.902;9.542;2023-07-22T12:47:31;7.10;;;6.50;;
462;SDS011;218;51.902;9.542;2023-07-22T12:49:58;6.80;;;6.30;;
462;SDS011;218;51.902;9.542;2023-07-22T12:52:25;7.20;;;6.50;;
462;SDS011;218;51.902;9.542;2023-07-22T12:54:52;8.00;;;7.30;;
462;SDS011;218;51.902;9.542;2023-07-22T12:57:21;7.70;;;7.10;;
462;SDS011;218;51.902;9.542;2023-07-22T12:59:47;7.30;;;6.60;;
462;SDS011;218;51.902;9.542;2023-07-22T13:02:15;6.97;;;6.47;;
462;SDS011;218;51.902;9.542;2023-07-22T13:04:42;7.10;;;6.40;;
462;SDS011;218;51.902;9.542;2023-07-22T13:07:09;6.73;;;6.13;;
462;SDS011;218;51.902;9.542;2023-07-22T13:09:36;7.80;;;7.03;;
462;SDS011;218;51.902;9.542;2023-07-22T13:12:03;7.00;;;6.40;;
462;SDS011;218;51.902;9.542;2023-07-22T13:14:32;7.10;;;6.40;;
462;SDS011;218;51.902;9.542;2023-07-22T13:16:59;7.57;;;6.87;;
462;SDS011;218;51.902;9.542;2023-07-22T13:19:26;6.60;;;5.97;;
462;SDS011;218;51.902;9.542;2023-07-22T13:21:53;7.63;;;5.83;;
462;SDS011;218;51.902;9.542;2023-07-22T13:24:21;8.20;;;7.50;;
462;SDS011;218;51.902;9.542;2023-07-22T13:26:48;7.30;;;6.60;;
462;SDS011;218;51.902;9.542;2023-07-22T13:29:14;5.93;;;5.53;;
462;SDS011;218;51.902;9.542;2023-07-22T13:31:45;7.07;;;6.47;;
462;SDS011;218;51.902;9.542;2023-07-22T13:34:12;8.20;;;5.77;;
462;SDS011;218;51.902;9.542;2023-07-22T13:36:39;6.30;;;5.70;;
462;SDS011;218;51.902;9.542;2023-07-22T13:39:07;6.30;;;5.80;;
462;SDS011;218;51.902;9.542;2023-07-22T13:41:34;5.97;;;5.47;;
462;SDS011;218;51.902;9.542;2023-07-22T13:44:01;6.10;;;5.60;;
462;SDS011;218;51.902;9.542;2023-07-22T13:46:28;5.93;;;5.33;;
462;SDS011;218;51.902;9.542;2023-07-22T13:48:57;7.20;;;6.60;;
462;SDS011;218;51.902;9.542;2023-07-22T13:51:23;7.43;;;6.83;;
462;SDS011;218;51.902;9.542;2023-07-22T13:53:50;6.30;;;4.93;;
462;SDS011;218;51.902;9.542;2023-07-22T13:56:17;6.00;;;5.57;;
462;SDS011;218;51.902;9.542;2023-07-22T13:58:44;6.23;;;5.47;;
462;SDS011;218;51.902;9.542;2023-07-22T14:01:11;5.93;;;5.43;;
462;SDS011;218;51.902;9.542;2023-07-22T14:03:38;5.40;;;5.00;;
462;SDS011;218;51.902;9.542;2023-07-22T14:06:07;6.47;;;5.87;;
462;SDS011;218;51.902;9.542;2023-07-22T14:08:34;6.17;;;5.67;;
462;SDS011;218;51.902;9.542;2023-07-22T14:11:01;5.77;;;5.27;;
462;SDS011;218;51.902;9.542;2023-07-22T14:13:28;6.07;;;5.57;;
462;SDS011;218;51.902;9.542;2023-07-22T14:15:55;6.07;;;5.57;;
462;SDS011;218;51.902;9.542;2023-07-22T14:18:21;6.60;;;5.70;;
462;SDS011;218;51.902;9.542;2023-07-22T14:20:49;5.23;;;4.83;;
462;SDS011;218;51.902;9.542;2023-07-22T14:23:18;5.77;;;5.27;;
462;SDS011;218;51.902;9.542;2023-07-22T14:25:44;5.10;;;4.70;;
462;SDS011;218;51.902;9.542;2023-07-22T14:28:11;5.80;;;5.23;;
462;SDS011;218;51.902;9.542;2023-07-22T14:30:38;5.90;;;5.40;;
462;SDS011;218;51.902;9.542;2023-07-22T14:33:05;5.40;;;5.00;;
462;SDS011;218;51.902;9.542;2023-07-22T14:35:32;6.23;;;5.70;;
462;SDS011;218;51.902;9.542;2023-07-22T14:37:59;6.93;;;5.97;;
462;SDS011;218;51.902;9.542;2023-07-22T14:40:28;5.13;;;4.73;;
462;SDS011;218;51.902;9.542;2023-07-22T14:42:55;6.33;;;5.83;;
462;SDS011;218;51.902;9.542;2023-07-22T14:45:22;5.90;;;5.50;;
462;SDS011;218;51.902;9.542;2023-07-22T14:47:49;6.00;;;5.40;;
462;SDS011;218;51.902;9.542;2023-07-22T14:50:16;5.20;;;4.80;;
462;SDS011;218;51.902;9.542;2023-07-22T14:52:43;5.40;;;4.90;;
462;SDS011;218;51.902;9.542;2023-07-22T14:55:11;6.03;;;5.43;;
462;SDS011;218;51.902;9.542;2023-07-22T14:57:39;5.20;;;4.70;;
462;SDS011;218;51.902;9.542;2023-07-22T15:00:07;5.43;;;4.93;;
462;SDS011;218;51.902;9.542;2023-07-22T15:02:35;6.03;;;5.53;;
462;SDS011;218;51.902;9.542;2023-07-22T15:05:02;6.60;;;6.00;;
462;SDS011;218;51.902;9.542;2023-07-22T15:07:29;5.80;;;5.40;;
462;SDS011;218;51.902;9.542;2023-07-22T15:09:57;5.60;;;5.10;;
462;SDS011;218;51.902;9.542;2023-07-22T15:12:24;5.20;;;4.80;;
462;SDS011;218;51.902;9.542;2023-07-22T15:14:52;6.17;;;5.57;;
462;SDS011;218;51.902;9.542;2023-07-22T15:17:19;5.50;;;5.10;;
462;SDS011;218;51.902;9.542;2023-07-22T15:19:46;5.50;;;5.10;;
462;SDS011;218;51.902;9.542;2023-07-22T15:22:13;5.97;;;5.50;;
462;SDS011;218;51.902;9.542;2023-07-22T15:24:40;5.80;;;5.30;;
462;SDS011;218;51.902;9.542;2023-07-22T15:27:07;5.03;;;4.63;;
462;SDS011;218;51.902;9.542;2023-07-22T15:29:34;5.07;;;4.70;;
462;SDS011;218;51.902;9.542;2023-07-22T15:32:02;5.43;;;4.93;;
462;SDS011;218;51.902;9.542;2023-07-22T15:34:30;5.27;;;4.77;;
462;SDS011;218;51.902;9.542;2023-07-22T15:36:58;4.40;;;4.10;;
462;SDS011;218;51.902;9.542;2023-07-22T15:39:25;4.83;;;4.43;;
462;SDS011;218;51.902;9.542;2023-07-22T15:41:52;4.40;;;4.03;;
462;SDS011;218;51.902;9.542;2023-07-22T15:44:19;5.30;;;4.90;;
462;SDS011;218;51.902;9.542;2023-07-22T15:46:47;4.80;;;4.40;;
462;SDS011;218;51.902;9.542;2023-07-22T15:49:15;4.90;;;4.50;;